Time;durP1;ratioP1;P1;durP2;ratioP2;P2;SDS_P1;SDS_P2;PMS_P1;PMS_P2;Temp;Humidity;BMP_temperature;BMP_pressure;BME280_temperature;BME280_humidity;BME280_pressure;Samples;Min_cycle;Max_cycle;Signal;HPM_P1;HPM_P2
2022/03/26 00:00:17;;;;;;;18.88;10.15;;;;;;;;;;5029430;28;20037;-65
2022/03/26 00:02:44;;;;;;;22.40;10.25;;;;;;;;;;5029757;28;20477;-64
2022/03/26 00:05:10;;;;;;;19.48;10.18;;;;;;;;;;5029420;28;20046;-65
2022/03/26 00:07:36;;;;;;;17.35;9.45;;;;;;;;;;5032051;28;20025;-65
2022/03/26 00:10:03;;;;;;;16.85;9.57;;;;;;;;;;5033330;28;20025;-65
2022/03/26 00:12:29;;;;;;;18.60;9.35;;;;;;;;;;5033320;28;20104;-64
2022/03/26 00:14:54;;;;;;;17.75;9.52;;;;;;;;;;5033201;28;20533;-64
2022/03/26 00:17:19;;;;;;;15.55;8.90;;;;;;;;;;5033200;28;20500;-64
2022/03/26 00:19:45;;;;;;;18.30;9.00;;;;;;;;;;5033064;28;20473;-64
2022/03/26 00:22:10;;;;;;;16.73;9.07;;;;;;;;;;5033161;28;20096;-64
2022/03/26 00:24:36;;;;;;;15.50;8.82;;;;;;;;;;5032941;28;20428;-64
2022/03/26 00:27:02;;;;;;;15.98;8.98;;;;;;;;;;5033429;28;20073;-65
2022/03/26 00:29:28;;;;;;;17.48;9.48;;;;;;;;;;5032962;28;20060;-65
2022/03/26 00:31:54;;;;;;;15.50;8.73;;;;;;;;;;5032940;28;20109;-64
2022/03/26 00:34:19;;;;;;;14.32;8.73;;;;;;;;;;5032695;28;20113;-65
2022/03/26 00:36:45;;;;;;;13.57;8.35;;;;;;;;;;5032825;28;20084;-64
2022/03/26 00:39:10;;;;;;;18.20;8.30;;;;;;;;;;5032992;28;20026;-65
2022/03/26 00:41:36;;;;;;;12.30;8.27;;;;;;;;;;5032821;28;20025;-65
2022/03/26 00:44:02;;;;;;;14.98;8.18;;;;;;;;;;5032727;28;20104;-64
2022/03/26 00:46:27;;;;;;;16.40;8.23;;;;;;;;;;5032879;28;20040;-64
2022/03/26 00:48:56;;;;;;;15.23;8.30;;;;;;;;;;5032331;28;20033;-65
2022/03/26 00:51:21;;;;;;;14.23;8.30;;;;;;;;;;5032705;28;20029;-64
2022/03/26 00:53:47;;;;;;;14.55;7.88;;;;;;;;;;5032838;28;20169;-64
2022/03/26 00:56:12;;;;;;;19.13;8.77;;;;;;;;;;5032740;28;20163;-65
2022/03/26 00:58:39;;;;;;;16.98;8.48;;;;;;;;;;5032857;28;20389;-65
2022/03/26 01:01:06;;;;;;;15.80;9.00;;;;;;;;;;5031966;28;20026;-64
2022/03/26 01:03:33;;;;;;;13.93;8.02;;;;;;;;;;5032299;28;20478;-64
2022/03/26 01:05:58;;;;;;;15.05;7.80;;;;;;;;;;5032176;28;20048;-64
2022/03/26 01:08:24;;;;;;;16.63;8.43;;;;;;;;;;5032412;28;20041;-65
2022/03/26 01:10:49;;;;;;;15.88;8.25;;;;;;;;;;5031968;28;20025;-64
2022/03/26 01:13:16;;;;;;;15.60;8.40;;;;;;;;;;5032367;28;20075;-64
2022/03/26 01:15:42;;;;;;;12.15;7.82;;;;;;;;;;5032111;28;20025;-65
2022/03/26 01:18:07;;;;;;;14.07;7.88;;;;;;;;;;5031416;28;20036;-64
2022/03/26 01:20:33;;;;;;;13.07;7.88;;;;;;;;;;5031580;28;20229;-64
2022/03/26 01:22:59;;;;;;;13.13;7.47;;;;;;;;;;5032155;28;20040;-64
2022/03/26 01:25:25;;;;;;;16.23;8.23;;;;;;;;;;5031952;28;20514;-64
2022/03/26 01:27:51;;;;;;;14.23;7.40;;;;;;;;;;5032012;28;20108;-64
2022/03/26 01:30:17;;;;;;;14.45;7.30;;;;;;;;;;5031919;28;20408;-64
2022/03/26 01:32:44;;;;;;;13.48;6.78;;;;;;;;;;5031691;28;20061;-65
2022/03/26 01:35:11;;;;;;;12.00;6.68;;;;;;;;;;5031487;28;20040;-64
2022/03/26 01:37:36;;;;;;;12.02;6.88;;;;;;;;;;5031826;28;20034;-64
2022/03/26 01:40:03;;;;;;;10.75;6.60;;;;;;;;;;5031793;28;20116;-65
2022/03/26 01:42:29;;;;;;;11.57;6.47;;;;;;;;;;5031553;28;20033;-64
2022/03/26 01:44:54;;;;;;;13.70;6.75;;;;;;;;;;5031523;28;20033;-64
2022/03/26 01:47:20;;;;;;;10.73;6.50;;;;;;;;;;5031394;28;20021;-65
2022/03/26 01:49:45;;;;;;;11.50;6.65;;;;;;;;;;5031654;28;20075;-65
2022/03/26 01:52:11;;;;;;;12.93;6.93;;;;;;;;;;5031287;28;20240;-64
2022/03/26 01:54:39;;;;;;;13.65;6.85;;;;;;;;;;5031184;28;20397;-65
2022/03/26 01:57:06;;;;;;;13.68;6.22;;;;;;;;;;5031447;28;20044;-64
2022/03/26 01:59:32;;;;;;;11.88;6.18;;;;;;;;;;5031229;28;20059;-65
2022/03/26 02:01:58;;;;;;;11.10;5.85;;;;;;;;;;5030929;28;20048;-64
2022/03/26 02:04:24;;;;;;;10.75;5.93;;;;;;;;;;5031396;28;20496;-64
2022/03/26 02:06:50;;;;;;;11.05;5.80;;;;;;;;;;5030852;28;20050;-65
2022/03/26 02:09:16;;;;;;;12.50;6.00;;;;;;;;;;5031191;28;20542;-64
2022/03/26 02:11:45;;;;;;;11.43;5.50;;;;;;;;;;5030672;28;20481;-65
2022/03/26 02:14:12;;;;;;;13.40;5.38;;;;;;;;;;5030887;28;20025;-64
2022/03/26 02:16:40;;;;;;;9.88;5.45;;;;;;;;;;5030706;28;20112;-64
2022/03/26 02:19:07;;;;;;;10.18;5.25;;;;;;;;;;5031042;28;20079;-64
2022/03/26 02:21:37;;;;;;;10.32;5.03;;;;;;;;;;5030555;28;20056;-65
2022/03/26 02:24:06;;;;;;;8.10;4.70;;;;;;;;;;5030986;28;20519;-64
2022/03/26 02:26:31;;;;;;;8.35;4.55;;;;;;;;;;5030818;28;20057;-64
2022/03/26 02:29:03;;;;;;;7.20;4.20;;;;;;;;;;5031337;28;20285;-64
2022/03/26 02:31:29;;;;;;;9.00;4.32;;;;;;;;;;5030364;28;20036;-64
2022/03/26 02:33:54;;;;;;;8.07;4.38;;;;;;;;;;5030974;28;20017;-65
2022/03/26 02:36:19;;;;;;;10.50;4.35;;;;;;;;;;5030566;28;20183;-65
2022/03/26 02:38:45;;;;;;;7.70;4.22;;;;;;;;;;5030877;28;20025;-64
2022/03/26 02:41:10;;;;;;;9.13;4.30;;;;;;;;;;5030519;28;20033;-64
2022/03/26 02:43:36;;;;;;;11.73;4.30;;;;;;;;;;5030868;28;20068;-65
2022/03/26 02:46:03;;;;;;;10.38;4.40;;;;;;;;;;5030463;28;20018;-65
2022/03/26 02:48:29;;;;;;;6.78;3.50;;;;;;;;;;5030712;28;20022;-65
2022/03/26 02:50:54;;;;;;;10.43;4.32;;;;;;;;;;5030337;28;20024;-65
2022/03/26 02:53:20;;;;;;;8.05;4.50;;;;;;;;;;5030466;28;20436;-64
2022/03/26 02:55:45;;;;;;;7.57;4.40;;;;;;;;;;5028854;28;20040;-64
2022/03/26 02:58:11;;;;;;;10.07;4.35;;;;;;;;;;5030889;28;20516;-64
2022/03/26 03:00:38;;;;;;;10.27;4.72;;;;;;;;;;5030280;28;20078;-64
2022/03/26 03:03:04;;;;;;;9.30;5.10;;;;;;;;;;5030431;28;20021;-64
2022/03/26 03:05:30;;;;;;;10.95;4.47;;;;;;;;;;5030158;28;20049;-64
2022/03/26 03:07:56;;;;;;;9.40;4.72;;;;;;;;;;5030266;28;20032;-65
2022/03/26 03:10:22;;;;;;;8.50;4.43;;;;;;;;;;5030384;28;20029;-65
2022/03/26 03:12:48;;;;;;;11.82;4.43;;;;;;;;;;5030266;28;20028;-65
2022/03/26 03:15:18;;;;;;;8.38;4.10;;;;;;;;;;5030332;28;20033;-65
2022/03/26 03:17:44;;;;;;;8.50;4.30;;;;;;;;;;5030268;28;20083;-65
2022/03/26 03:20:11;;;;;;;9.27;4.90;;;;;;;;;;5030572;28;20465;-66
2022/03/26 03:22:37;;;;;;;9.65;4.25;;;;;;;;;;5029824;28;20061;-65
2022/03/26 03:25:06;;;;;;;9.75;4.28;;;;;;;;;;5030269;28;20210;-65
2022/03/26 03:27:32;;;;;;;11.63;4.43;;;;;;;;;;5030088;28;20022;-65
2022/03/26 03:29:58;;;;;;;10.48;4.15;;;;;;;;;;5030308;28;20051;-65
2022/03/26 03:32:23;;;;;;;8.93;4.63;;;;;;;;;;5029858;28;20469;-64
2022/03/26 03:34:50;;;;;;;8.85;4.45;;;;;;;;;;5030054;28;20018;-65
2022/03/26 03:37:16;;;;;;;9.95;4.45;;;;;;;;;;5029787;28;20049;-65
2022/03/26 03:39:41;;;;;;;9.57;4.18;;;;;;;;;;5030053;28;20053;-65
2022/03/26 03:42:07;;;;;;;8.00;4.13;;;;;;;;;;5031216;28;20037;-65
2022/03/26 03:44:32;;;;;;;10.27;4.35;;;;;;;;;;5034131;28;20053;-65
2022/03/26 03:46:58;;;;;;;10.55;4.13;;;;;;;;;;5033746;28;20040;-65
2022/03/26 03:49:26;;;;;;;8.35;4.47;;;;;;;;;;5034031;28;20029;-65
2022/03/26 03:51:53;;;;;;;11.23;4.55;;;;;;;;;;5033554;28;20022;-65
2022/03/26 03:54:18;;;;;;;9.10;3.97;;;;;;;;;;5033727;28;20032;-65
2022/03/26 03:56:44;;;;;;;11.40;4.38;;;;;;;;;;5033420;28;20037;-65
2022/03/26 03:59:10;;;;;;;7.82;4.43;;;;;;;;;;5033866;28;20492;-65
2022/03/26 04:01:35;;;;;;;10.23;4.15;;;;;;;;;;5033246;28;20030;-65
2022/03/26 04:04:01;;;;;;;7.05;3.88;;;;;;;;;;5033406;28;20025;-65
2022/03/26 04:06:26;;;;;;;8.05;4.10;;;;;;;;;;5033381;28;20046;-65
2022/03/26 04:08:52;;;;;;;8.73;4.15;;;;;;;;;;5033499;28;20116;-64
2022/03/26 04:11:17;;;;;;;6.90;3.92;;;;;;;;;;5033269;28;20031;-64
2022/03/26 04:13:42;;;;;;;7.82;4.25;;;;;;;;;;5033243;28;20092;-65
2022/03/26 04:16:08;;;;;;;7.95;4.45;;;;;;;;;;5033375;28;20038;-65
2022/03/26 04:18:34;;;;;;;7.45;4.55;;;;;;;;;;5033104;28;20087;-65
2022/03/26 04:21:00;;;;;;;8.68;4.10;;;;;;;;;;5032289;28;20021;-65
2022/03/26 04:23:26;;;;;;;9.82;4.35;;;;;;;;;;5032889;28;20116;-64
2022/03/26 04:25:51;;;;;;;10.60;4.03;;;;;;;;;;5033501;28;20113;-65
2022/03/26 04:28:17;;;;;;;9.10;4.20;;;;;;;;;;5031614;28;20029;-64
2022/03/26 04:30:42;;;;;;;8.27;4.38;;;;;;;;;;5033387;28;20362;-65
2022/03/26 04:33:07;;;;;;;9.02;4.28;;;;;;;;;;5032764;28;20436;-65
2022/03/26 04:35:34;;;;;;;9.60;4.57;;;;;;;;;;5032895;28;20480;-65
2022/03/26 04:38:00;;;;;;;8.23;4.15;;;;;;;;;;5032762;28;20420;-65
2022/03/26 04:40:28;;;;;;;10.15;4.55;;;;;;;;;;5032959;28;20108;-64
2022/03/26 04:42:54;;;;;;;8.63;4.05;;;;;;;;;;5032682;28;20112;-65
2022/03/26 04:45:19;;;;;;;10.07;4.03;;;;;;;;;;5032881;28;20454;-65
2022/03/26 04:47:45;;;;;;;6.68;3.90;;;;;;;;;;5032375;28;20022;-65
2022/03/26 04:50:11;;;;;;;8.93;4.20;;;;;;;;;;5032859;28;20018;-64
2022/03/26 04:52:38;;;;;;;10.55;4.43;;;;;;;;;;5031930;28;20021;-65
2022/03/26 04:55:06;;;;;;;13.80;4.57;;;;;;;;;;5031865;28;20038;-64
2022/03/26 04:57:31;;;;;;;8.25;4.47;;;;;;;;;;5032739;28;20384;-65
2022/03/26 04:59:57;;;;;;;9.73;4.07;;;;;;;;;;5032681;28;20492;-65
2022/03/26 05:02:22;;;;;;;8.73;4.40;;;;;;;;;;5032172;28;20377;-64
2022/03/26 05:04:48;;;;;;;9.73;4.25;;;;;;;;;;5032312;28;20408;-65
2022/03/26 05:09:57;;;;;;;10.57;4.38;;;;;;;;;;5032485;28;20083;-64
2022/03/26 05:12:23;;;;;;;9.40;4.18;;;;;;;;;;5032186;28;20025;-66
2022/03/26 05:14:49;;;;;;;8.57;4.32;;;;;;;;;;5032416;28;20029;-65
2022/03/26 05:17:14;;;;;;;8.07;4.43;;;;;;;;;;5031791;28;20029;-65
2022/03/26 05:19:40;;;;;;;8.68;4.03;;;;;;;;;;5032183;28;20021;-65
2022/03/26 05:22:05;;;;;;;10.27;4.65;;;;;;;;;;5030602;28;20044;-65
2022/03/26 05:24:32;;;;;;;9.68;4.30;;;;;;;;;;5030887;28;20021;-65
2022/03/26 05:26:58;;;;;;;10.90;4.75;;;;;;;;;;5032193;28;20095;-64
2022/03/26 05:29:23;;;;;;;9.98;4.25;;;;;;;;;;5032023;28;20428;-65
2022/03/26 05:31:48;;;;;;;10.23;4.57;;;;;;;;;;5032103;28;20662;-65
2022/03/26 05:34:14;;;;;;;10.38;4.53;;;;;;;;;;5031430;28;20105;-65
2022/03/26 05:36:39;;;;;;;11.02;4.60;;;;;;;;;;5031859;28;20022;-65
2022/03/26 05:39:05;;;;;;;8.13;4.88;;;;;;;;;;5031609;28;20044;-65
2022/03/26 05:41:32;;;;;;;9.70;4.28;;;;;;;;;;5031947;28;20480;-65
2022/03/26 05:43:59;;;;;;;9.23;4.47;;;;;;;;;;5031393;28;20041;-64
2022/03/26 05:46:24;;;;;;;12.40;4.47;;;;;;;;;;5031827;28;20036;-65
2022/03/26 05:48:50;;;;;;;14.25;4.95;;;;;;;;;;5031282;28;20031;-65
2022/03/26 05:51:15;;;;;;;12.13;4.70;;;;;;;;;;5031580;28;20029;-65
2022/03/26 05:53:41;;;;;;;12.55;4.78;;;;;;;;;;5031355;28;20045;-65
2022/03/26 05:56:06;;;;;;;11.02;4.70;;;;;;;;;;5031432;28;20033;-65
2022/03/26 05:58:32;;;;;;;11.90;4.45;;;;;;;;;;5031280;28;20066;-65
2022/03/26 06:00:58;;;;;;;10.00;4.50;;;;;;;;;;5031503;28;20512;-65
2022/03/26 06:03:23;;;;;;;10.50;4.78;;;;;;;;;;5030958;28;20485;-65
2022/03/26 06:05:49;;;;;;;11.32;4.78;;;;;;;;;;5030970;28;20045;-65
2022/03/26 06:08:15;;;;;;;8.50;4.57;;;;;;;;;;5031074;28;20216;-65
2022/03/26 06:10:40;;;;;;;8.77;4.57;;;;;;;;;;5031259;28;20029;-65
2022/03/26 06:13:06;;;;;;;11.45;4.70;;;;;;;;;;5031088;28;20040;-65
2022/03/26 06:15:34;;;;;;;10.25;4.60;;;;;;;;;;5030955;28;20022;-66
2022/03/26 06:18:02;;;;;;;10.32;4.57;;;;;;;;;;5030836;28;20064;-65
2022/03/26 06:20:27;;;;;;;9.63;4.40;;;;;;;;;;5031257;28;20029;-65
2022/03/26 06:22:53;;;;;;;10.45;4.53;;;;;;;;;;5030715;28;20021;-65
2022/03/26 06:25:20;;;;;;;10.35;4.32;;;;;;;;;;5030917;28;20465;-64
2022/03/26 06:27:47;;;;;;;11.13;4.47;;;;;;;;;;5030446;28;20033;-65
2022/03/26 06:30:12;;;;;;;11.25;4.75;;;;;;;;;;5030830;28;20504;-65
2022/03/26 06:32:38;;;;;;;12.63;4.90;;;;;;;;;;5030345;28;20057;-65
2022/03/26 06:35:05;;;;;;;10.82;5.15;;;;;;;;;;5030697;28;20091;-66
2022/03/26 06:37:30;;;;;;;12.60;4.82;;;;;;;;;;5030828;28;20477;-65
2022/03/26 06:39:56;;;;;;;12.88;5.15;;;;;;;;;;5030379;28;20028;-65
2022/03/26 06:42:21;;;;;;;13.05;4.68;;;;;;;;;;5030728;28;20080;-65
2022/03/26 06:44:47;;;;;;;8.63;4.65;;;;;;;;;;5030209;28;20030;-65
2022/03/26 06:47:12;;;;;;;11.45;4.72;;;;;;;;;;5030402;28;20113;-65
2022/03/26 06:49:38;;;;;;;11.88;4.68;;;;;;;;;;5030588;28;20029;-65
2022/03/26 06:52:04;;;;;;;11.07;4.85;;;;;;;;;;5030638;28;20079;-65
2022/03/26 06:54:30;;;;;;;13.00;4.90;;;;;;;;;;5030118;28;20037;-64
2022/03/26 06:56:55;;;;;;;10.98;4.68;;;;;;;;;;5030545;28;20025;-65
2022/03/26 06:59:21;;;;;;;10.25;5.38;;;;;;;;;;5030272;28;20030;-65
2022/03/26 07:01:46;;;;;;;10.77;4.70;;;;;;;;;;5030354;28;20032;-65
2022/03/26 07:04:12;;;;;;;12.82;5.15;;;;;;;;;;5029948;28;20029;-65
2022/03/26 07:06:38;;;;;;;11.30;4.82;;;;;;;;;;5030160;28;20444;-65
2022/03/26 07:09:03;;;;;;;9.93;5.03;;;;;;;;;;5030273;28;20026;-65
2022/03/26 07:11:29;;;;;;;11.52;4.78;;;;;;;;;;5030511;28;20067;-65
2022/03/26 07:13:54;;;;;;;13.98;5.40;;;;;;;;;;5029948;28;20064;-65
2022/03/26 07:16:19;;;;;;;11.23;5.55;;;;;;;;;;5030267;28;20416;-65
2022/03/26 07:18:45;;;;;;;14.65;5.20;;;;;;;;;;5034241;28;20029;-65
2022/03/26 07:21:10;;;;;;;10.38;4.75;;;;;;;;;;5034452;28;20041;-65
2022/03/26 07:23:36;;;;;;;13.88;5.30;;;;;;;;;;5034039;28;20303;-65
2022/03/26 07:26:02;;;;;;;9.60;5.13;;;;;;;;;;5034436;28;20100;-65
2022/03/26 07:28:28;;;;;;;11.32;5.38;;;;;;;;;;5034214;28;20041;-65
2022/03/26 07:30:53;;;;;;;12.93;5.63;;;;;;;;;;5034278;28;20021;-65
2022/03/26 07:33:19;;;;;;;11.82;4.85;;;;;;;;;;5033889;28;20028;-65
2022/03/26 07:35:44;;;;;;;10.63;5.03;;;;;;;;;;5033960;28;20139;-65
2022/03/26 07:38:10;;;;;;;14.32;5.50;;;;;;;;;;5034011;28;20615;-65
2022/03/26 07:40:36;;;;;;;13.82;5.15;;;;;;;;;;5033774;28;20030;-65
2022/03/26 07:43:02;;;;;;;12.98;5.38;;;;;;;;;;5034002;28;20025;-65
2022/03/26 07:45:28;;;;;;;11.20;5.10;;;;;;;;;;5033797;28;20084;-65
2022/03/26 07:47:53;;;;;;;12.77;5.38;;;;;;;;;;5033902;28;20087;-65
2022/03/26 07:50:19;;;;;;;13.88;5.45;;;;;;;;;;5033757;28;20487;-65
2022/03/26 07:52:44;;;;;;;12.00;5.40;;;;;;;;;;5033847;28;20032;-65
2022/03/26 07:55:10;;;;;;;11.02;4.93;;;;;;;;;;5033389;28;20029;-65
2022/03/26 07:57:36;;;;;;;13.25;5.50;;;;;;;;;;5033818;28;20029;-65
2022/03/26 08:00:01;;;;;;;13.48;5.20;;;;;;;;;;5033619;28;20464;-65
2022/03/26 08:02:27;;;;;;;12.98;5.50;;;;;;;;;;5033830;28;20121;-65
2022/03/26 08:04:52;;;;;;;12.32;5.35;;;;;;;;;;5033091;28;20079;-65
2022/03/26 08:07:20;;;;;;;11.82;4.97;;;;;;;;;;5033622;28;20021;-65
2022/03/26 08:09:45;;;;;;;11.82;5.20;;;;;;;;;;5033244;28;20021;-65
2022/03/26 08:12:10;;;;;;;10.90;5.32;;;;;;;;;;5033491;28;20112;-65
2022/03/26 08:14:36;;;;;;;9.60;5.05;;;;;;;;;;5033003;28;20022;-65
2022/03/26 08:17:02;;;;;;;13.00;5.15;;;;;;;;;;5033432;28;20087;-65
2022/03/26 08:19:28;;;;;;;12.40;5.20;;;;;;;;;;5033508;28;20056;-65
2022/03/26 08:21:53;;;;;;;11.65;5.30;;;;;;;;;;5033435;28;20026;-65
2022/03/26 08:24:19;;;;;;;13.80;5.40;;;;;;;;;;5032866;28;20481;-65
2022/03/26 08:26:44;;;;;;;12.02;5.30;;;;;;;;;;5033284;28;20022;-65
2022/03/26 08:29:10;;;;;;;11.18;5.03;;;;;;;;;;5032567;28;20168;-65
2022/03/26 08:31:35;;;;;;;16.27;5.75;;;;;;;;;;5033254;28;20025;-65
2022/03/26 08:34:02;;;;;;;11.27;5.03;;;;;;;;;;5032922;28;20021;-65
2022/03/26 08:36:28;;;;;;;14.18;5.45;;;;;;;;;;5032921;28;20029;-65
2022/03/26 08:38:53;;;;;;;18.50;5.40;;;;;;;;;;5033508;28;20772;-65
2022/03/26 08:41:21;;;;;;;14.15;5.38;;;;;;;;;;5032733;28;20034;-65
2022/03/26 08:43:49;;;;;;;12.95;5.30;;;;;;;;;;5032654;28;20045;-65
2022/03/26 08:46:15;;;;;;;12.88;5.15;;;;;;;;;;5032624;28;20117;-65
2022/03/26 08:48:40;;;;;;;10.07;5.28;;;;;;;;;;5032642;28;20113;-66
2022/03/26 08:51:06;;;;;;;12.73;5.32;;;;;;;;;;5032561;28;20052;-65
2022/03/26 08:53:32;;;;;;;17.08;5.50;;;;;;;;;;5032596;28;20440;-65
2022/03/26 08:55:57;;;;;;;11.20;5.43;;;;;;;;;;5032486;28;20519;-66
2022/03/26 08:58:23;;;;;;;15.07;5.55;;;;;;;;;;5032602;28;20041;-65
2022/03/26 09:00:51;;;;;;;15.00;5.60;;;;;;;;;;5032208;28;20026;-65
2022/03/26 09:03:19;;;;;;;14.50;5.40;;;;;;;;;;5032371;28;20090;-65
2022/03/26 09:05:49;;;;;;;14.30;5.35;;;;;;;;;;5032294;28;20100;-65
2022/03/26 09:08:14;;;;;;;11.02;5.38;;;;;;;;;;5032622;28;20082;-65
2022/03/26 09:10:40;;;;;;;14.40;5.78;;;;;;;;;;5031956;28;20029;-65
2022/03/26 09:13:06;;;;;;;14.52;5.80;;;;;;;;;;5032447;28;20064;-65
2022/03/26 09:15:31;;;;;;;13.90;5.30;;;;;;;;;;5032013;28;20034;-65
2022/03/26 09:17:59;;;;;;;13.77;5.55;;;;;;;;;;5031982;28;20064;-65
2022/03/26 09:20:25;;;;;;;15.73;5.75;;;;;;;;;;5031915;28;20034;-65
2022/03/26 09:22:50;;;;;;;13.30;5.55;;;;;;;;;;5032308;28;20029;-65
2022/03/26 09:25:17;;;;;;;10.30;5.47;;;;;;;;;;5031735;28;20040;-65
2022/03/26 09:27:43;;;;;;;12.80;6.00;;;;;;;;;;5032140;28;20036;-65
2022/03/26 09:30:09;;;;;;;15.73;5.80;;;;;;;;;;5032018;28;20033;-65
2022/03/26 09:32:34;;;;;;;11.50;5.95;;;;;;;;;;5031927;28;20033;-66
2022/03/26 09:35:00;;;;;;;14.23;5.88;;;;;;;;;;5031471;28;20492;-65
2022/03/26 09:37:25;;;;;;;13.35;5.68;;;;;;;;;;5031559;28;20104;-65
2022/03/26 09:39:51;;;;;;;11.27;6.00;;;;;;;;;;5030992;28;20228;-65
2022/03/26 09:42:16;;;;;;;19.25;5.88;;;;;;;;;;5031927;28;20057;-65
2022/03/26 09:44:42;;;;;;;15.55;5.68;;;;;;;;;;5031612;28;20037;-65
2022/03/26 09:47:09;;;;;;;11.88;5.40;;;;;;;;;;5031574;28;20057;-65
2022/03/26 09:49:37;;;;;;;13.02;5.78;;;;;;;;;;5031800;28;20032;-66
2022/03/26 09:52:05;;;;;;;11.18;5.45;;;;;;;;;;5031393;28;20039;-70
2022/03/26 09:54:31;;;;;;;13.43;5.72;;;;;;;;;;5031321;28;20424;-65
2022/03/26 09:56:56;;;;;;;15.93;5.35;;;;;;;;;;5031327;28;20041;-65
2022/03/26 09:59:23;;;;;;;11.30;5.75;;;;;;;;;;5031750;28;20037;-66
2022/03/26 10:01:49;;;;;;;9.93;5.32;;;;;;;;;;5031125;28;20033;-65
2022/03/26 10:04:18;;;;;;;10.32;5.82;;;;;;;;;;5031514;28;20060;-65
2022/03/26 10:06:57;;;;;;;13.65;5.93;;;;;;;;;;5031038;28;20489;-65
2022/03/26 10:09:32;;;;;;;12.30;5.90;;;;;;;;;;5031357;28;20040;-65
2022/03/26 10:12:09;;;;;;;12.35;5.63;;;;;;;;;;5031044;28;20639;-65
2022/03/26 10:14:39;;;;;;;16.27;5.60;;;;;;;;;;5031119;28;20030;-65
2022/03/26 10:17:17;;;;;;;12.98;6.15;;;;;;;;;;5030833;28;20590;-65
2022/03/26 10:19:45;;;;;;;12.70;5.60;;;;;;;;;;5031043;28;20056;-66
2022/03/26 10:22:28;;;;;;;13.65;5.90;;;;;;;;;;5030964;28;20025;-65
2022/03/26 10:24:55;;;;;;;12.02;5.65;;;;;;;;;;5030543;28;20456;-66
2022/03/26 10:27:21;;;;;;;12.20;5.45;;;;;;;;;;5030540;28;20472;-66
2022/03/26 10:29:51;;;;;;;13.68;6.03;;;;;;;;;;5030774;28;20370;-65
2022/03/26 10:32:49;;;;;;;12.30;5.53;;;;;;;;;;5030571;28;20033;-65
2022/03/26 10:35:24;;;;;;;17.15;6.32;;;;;;;;;;5030299;28;20424;-66
2022/03/26 10:37:53;;;;;;;15.52;6.18;;;;;;;;;;5030433;28;20021;-66
2022/03/26 10:40:39;;;;;;;13.60;6.07;;;;;;;;;;5030644;28;20076;-65
2022/03/26 10:43:11;;;;;;;15.35;6.40;;;;;;;;;;5030482;28;20520;-66
2022/03/26 10:45:51;;;;;;;13.00;6.13;;;;;;;;;;5030674;28;20380;-65
2022/03/26 10:48:23;;;;;;;12.27;5.53;;;;;;;;;;5030560;28;20048;-66
2022/03/26 10:51:00;;;;;;;10.70;5.47;;;;;;;;;;5030458;28;20022;-65
2022/03/26 10:53:39;;;;;;;13.50;5.95;;;;;;;;;;5030824;28;20056;-65
2022/03/26 10:56:06;;;;;;;11.20;5.60;;;;;;;;;;5030098;28;20052;-66
2022/03/26 10:58:33;;;;;;;15.15;5.70;;;;;;;;;;5030666;28;20072;-65
2022/03/26 11:00:59;;;;;;;13.15;5.63;;;;;;;;;;5030104;28;20417;-65
2022/03/26 11:03:25;;;;;;;17.98;5.93;;;;;;;;;;5030043;28;20025;-65
2022/03/26 11:05:55;;;;;;;16.85;5.70;;;;;;;;;;5029768;28;20052;-66
2022/03/26 11:08:22;;;;;;;15.20;6.20;;;;;;;;;;5030317;28;20064;-65
2022/03/26 11:10:50;;;;;;;13.20;5.60;;;;;;;;;;5030307;28;20484;-65
2022/03/26 11:13:18;;;;;;;12.55;5.68;;;;;;;;;;5030421;28;20036;-71
2022/03/26 11:15:48;;;;;;;14.77;5.70;;;;;;;;;;5030082;28;20045;-65
2022/03/26 11:18:51;;;;;;;11.80;5.72;;;;;;;;;;5029910;28;20030;-65
2022/03/26 11:21:49;;;;;;;15.57;7.03;;;;;;;;;;5030005;28;20040;-65
2022/03/26 11:24:40;;;;;;;35.75;16.30;;;;;;;;;;5030123;28;20029;-66
2022/03/26 11:27:34;;;;;;;19.58;8.75;;;;;;;;;;5030299;28;20053;-66
2022/03/26 11:30:16;;;;;;;15.35;6.63;;;;;;;;;;5030291;28;20117;-65
2022/03/26 11:32:44;;;;;;;13.23;5.97;;;;;;;;;;5029775;28;20025;-65
2022/03/26 11:35:18;;;;;;;16.20;5.93;;;;;;;;;;5030088;28;20079;-65
2022/03/26 11:37:52;;;;;;;11.13;6.10;;;;;;;;;;5029702;28;20075;-65
2022/03/26 11:40:53;;;;;;;11.60;5.65;;;;;;;;;;5030260;28;20033;-65
2022/03/26 11:44:01;;;;;;;12.68;5.82;;;;;;;;;;5030058;28;20323;-65
2022/03/26 11:52:26;;;;;;;;;;;;;;;;;;5030458;28;20040;-65
2022/03/26 11:54:55;;;;;;;10.57;5.80;;;;;;;;;;5030181;28;19913;-66
2022/03/26 11:57:23;;;;;;;14.77;6.40;;;;;;;;;;5029650;28;20489;-65
2022/03/26 11:59:49;;;;;;;11.20;6.07;;;;;;;;;;5030063;28;20531;-65
2022/03/26 12:02:25;;;;;;;15.18;5.97;;;;;;;;;;5029777;28;20217;-65
2022/03/26 12:04:52;;;;;;;14.48;6.60;;;;;;;;;;5033449;28;20026;-66
2022/03/26 12:07:18;;;;;;;11.27;6.03;;;;;;;;;;5033539;28;20091;-65
2022/03/26 12:09:44;;;;;;;9.25;5.55;;;;;;;;;;5033614;28;20025;-65
2022/03/26 12:12:13;;;;;;;14.52;7.40;;;;;;;;;;5033219;28;20389;-65
2022/03/26 12:15:07;;;;;;;20.67;8.95;;;;;;;;;;5033379;28;20021;-65
2022/03/26 12:17:45;;;;;;;30.35;13.48;;;;;;;;;;5033086;28;20274;-65
2022/03/26 12:20:36;;;;;;;17.27;8.63;;;;;;;;;;5033973;28;20053;-65
2022/03/26 12:23:29;;;;;;;20.02;8.20;;;;;;;;;;5033086;28;20045;-66
2022/03/26 12:26:00;;;;;;;15.70;8.48;;;;;;;;;;5033058;28;20025;-66
2022/03/26 12:28:25;;;;;;;21.50;12.55;;;;;;;;;;5033473;28;20524;-65
2022/03/26 12:30:53;;;;;;;15.60;8.18;;;;;;;;;;5033270;28;20030;-66
2022/03/26 12:33:19;;;;;;;16.65;8.80;;;;;;;;;;5032970;28;20026;-65
2022/03/26 12:35:46;;;;;;;12.88;6.25;;;;;;;;;;5033032;28;20030;-65
2022/03/26 12:38:12;;;;;;;13.00;6.65;;;;;;;;;;5032923;28;20045;-65
2022/03/26 12:40:39;;;;;;;15.88;6.65;;;;;;;;;;5033165;28;20385;-65
2022/03/26 12:43:08;;;;;;;13.15;6.78;;;;;;;;;;5032658;28;20029;-65
2022/03/26 12:45:34;;;;;;;12.95;6.95;;;;;;;;;;5032665;28;20504;-65
2022/03/26 12:48:00;;;;;;;15.25;6.88;;;;;;;;;;5032815;28;20029;-65
2022/03/26 12:50:26;;;;;;;15.25;6.88;;;;;;;;;;5033055;28;20033;-65
2022/03/26 12:52:52;;;;;;;14.30;7.03;;;;;;;;;;5032673;28;20017;-68
2022/03/26 12:55:18;;;;;;;15.65;7.55;;;;;;;;;;5032544;28;20044;-65
2022/03/26 13:00:31;;;;;;;15.10;7.60;;;;;;;;;;5032704;28;20029;-66
2022/03/26 13:03:10;;;;;;;14.57;7.07;;;;;;;;;;5032196;28;20022;-66
2022/03/26 13:05:37;;;;;;;17.63;7.55;;;;;;;;;;5032277;28;20052;-65
2022/03/26 13:08:04;;;;;;;15.40;7.18;;;;;;;;;;5032328;28;20083;-65
2022/03/26 13:10:35;;;;;;;17.38;8.07;;;;;;;;;;5032759;28;20416;-66
2022/03/26 13:13:02;;;;;;;15.15;7.30;;;;;;;;;;5032468;28;20505;-66
2022/03/26 13:15:27;;;;;;;13.13;7.57;;;;;;;;;;5029747;28;20033;-66
2022/03/26 13:17:57;;;;;;;15.27;7.40;;;;;;;;;;5031814;28;20017;-66
2022/03/26 13:20:25;;;;;;;14.27;7.60;;;;;;;;;;5032268;28;20025;-65
2022/03/26 13:23:01;;;;;;;14.95;7.57;;;;;;;;;;5032016;28;20101;-67
2022/03/26 13:25:32;;;;;;;18.15;8.18;;;;;;;;;;5032099;28;20112;-65
2022/03/26 13:28:31;;;;;;;11.15;7.50;;;;;;;;;;5032129;28;20025;-65
2022/03/26 13:30:57;;;;;;;13.85;8.20;;;;;;;;;;5032203;28;20022;-65
2022/03/26 13:33:28;;;;;;;18.38;7.97;;;;;;;;;;5031623;28;20043;-65
2022/03/26 13:35:58;;;;;;;22.02;7.80;;;;;;;;;;5031841;28;20398;-65
2022/03/26 13:38:27;;;;;;;16.20;8.00;;;;;;;;;;5031665;28;20045;-65
2022/03/26 13:40:52;;;;;;;17.63;7.93;;;;;;;;;;5032044;28;20036;-66
2022/03/26 13:43:18;;;;;;;16.13;7.20;;;;;;;;;;5031566;28;20021;-65
2022/03/26 13:45:45;;;;;;;15.95;7.40;;;;;;;;;;5031493;28;20071;-65
2022/03/26 13:48:12;;;;;;;17.13;7.75;;;;;;;;;;5031457;28;20560;-66
2022/03/26 13:50:39;;;;;;;13.75;7.18;;;;;;;;;;5031783;28;20059;-65
2022/03/26 13:53:16;;;;;;;15.57;7.78;;;;;;;;;;5031340;28;20025;-66
2022/03/26 13:55:46;;;;;;;18.13;7.50;;;;;;;;;;5031273;28;20030;-65
2022/03/26 13:58:18;;;;;;;14.57;7.70;;;;;;;;;;5031355;28;20541;-65
2022/03/26 14:00:44;;;;;;;13.82;7.45;;;;;;;;;;5031556;28;20028;-66
2022/03/26 14:03:10;;;;;;;14.52;7.32;;;;;;;;;;5031316;28;20025;-65
2022/03/26 14:05:39;;;;;;;18.08;8.07;;;;;;;;;;5031229;28;20046;-65
2022/03/26 14:08:07;;;;;;;16.65;7.43;;;;;;;;;;5031006;28;20037;-66
2022/03/26 14:10:38;;;;;;;14.25;7.20;;;;;;;;;;5031250;28;20034;-65
2022/03/26 14:13:08;;;;;;;12.95;7.68;;;;;;;;;;5031038;28;20469;-66
2022/03/26 14:15:34;;;;;;;12.35;7.40;;;;;;;;;;5031298;28;20075;-65
2022/03/26 14:18:00;;;;;;;20.33;7.68;;;;;;;;;;5031124;28;20029;-65
2022/03/26 14:20:30;;;;;;;14.15;7.18;;;;;;;;;;5031304;28;20041;-66
2022/03/26 14:22:58;;;;;;;14.85;7.57;;;;;;;;;;5031001;28;20033;-66
2022/03/26 14:25:28;;;;;;;16.13;7.40;;;;;;;;;;5030615;28;20036;-66
2022/03/26 14:27:54;;;;;;;;;;;;;;;;;;5031463;28;20060;-65
2022/03/26 14:30:19;;;;;;;13.02;6.82;;;;;;;;;;5031248;28;19968;-65
2022/03/26 14:32:45;;;;;;;14.98;6.82;;;;;;;;;;5030922;28;20496;-65
2022/03/26 14:35:10;;;;;;;14.93;7.38;;;;;;;;;;5030757;28;20029;-65
2022/03/26 14:37:36;;;;;;;16.55;6.57;;;;;;;;;;5030825;28;20500;-66
2022/03/26 14:40:02;;;;;;;15.93;6.80;;;;;;;;;;5030577;28;20025;-65
2022/03/26 14:42:31;;;;;;;11.43;6.07;;;;;;;;;;5031268;28;20022;-65
2022/03/26 14:44:56;;;;;;;13.13;6.13;;;;;;;;;;5030515;28;20036;-66
2022/03/26 14:47:21;;;;;;;14.20;6.60;;;;;;;;;;5030366;28;20025;-65